sensor_id;sensor_type;location;lat;lon;timestamp;pressure;altitude;pressure_sealevel;temperature;humidity
49825;BME280;35714;55.708;37.478;2023-02-15T00:01:18;99675.03;;;0.81;55.55
49825;BME280;35714;55.708;37.478;2023-02-15T00:03:44;99665.72;;;0.77;55.27
49825;BME280;35714;55.708;37.478;2023-02-15T00:06:09;99668.53;;;0.67;55.65
49825;BME280;35714;55.708;37.478;2023-02-15T00:08:35;99687.19;;;0.67;55.85
49825;BME280;35714;55.708;37.478;2023-02-15T00:11:19;99677.53;;;0.66;55.88
49825;BME280;35714;55.708;37.478;2023-02-15T00:14:28;99679.53;;;0.64;56.09
49825;BME280;35714;55.708;37.478;2023-02-15T00:16:54;99681.19;;;0.65;56.37
49825;BME280;35714;55.708;37.478;2023-02-15T00:19:21;99683.53;;;0.68;56.23
49825;BME280;35714;55.708;37.478;2023-02-15T00:21:47;99684.19;;;0.70;56.17
49825;BME280;35714;55.708;37.478;2023-02-15T00:24:15;99686.72;;;0.72;56.12
49825;BME280;35714;55.708;37.478;2023-02-15T00:26:42;99672.38;;;0.73;56.01
49825;BME280;35714;55.708;37.478;2023-02-15T00:29:09;99685.22;;;0.78;56.30
49825;BME280;35714;55.708;37.478;2023-02-15T00:31:35;99657.34;;;0.64;56.08
49825;BME280;35714;55.708;37.478;2023-02-15T00:34:22;99681.25;;;0.82;55.66
49825;BME280;35714;55.708;37.478;2023-02-15T00:36:48;99680.88;;;0.77;55.86
49825;BME280;35714;55.708;37.478;2023-02-15T00:39:15;99685.56;;;0.75;55.94
49825;BME280;35714;55.708;37.478;2023-02-15T00:41:43;99687.25;;;0.76;55.91
49825;BME280;35714;55.708;37.478;2023-02-15T00:44:09;99687.25;;;0.76;55.79
49825;BME280;35714;55.708;37.478;2023-02-15T00:46:35;99694.56;;;0.74;55.96
49825;BME280;35714;55.708;37.478;2023-02-15T00:49:02;99692.53;;;0.67;56.03
49825;BME280;35714;55.708;37.478;2023-02-15T00:51:28;99700.22;;;0.70;56.16
49825;BME280;35714;55.708;37.478;2023-02-15T00:53:53;99686.91;;;0.79;55.95
49825;BME280;35714;55.708;37.478;2023-02-15T00:56:19;99693.72;;;0.73;55.72
49825;BME280;35714;55.708;37.478;2023-02-15T00:58:45;99683.53;;;0.60;56.17
49825;BME280;35714;55.708;37.478;2023-02-15T01:01:19;99694.22;;;0.77;55.79
49825;BME280;35714;55.708;37.478;2023-02-15T01:03:45;99696.56;;;0.71;56.05
49825;BME280;35714;55.708;37.478;2023-02-15T01:06:13;99692.22;;;0.70;56.03
49825;BME280;35714;55.708;37.478;2023-02-15T01:08:42;99696.06;;;0.68;56.19
49825;BME280;35714;55.708;37.478;2023-02-15T01:11:11;99702.22;;;0.68;56.25
49825;BME280;35714;55.708;37.478;2023-02-15T01:13:40;99685.50;;;0.58;56.34
49825;BME280;35714;55.708;37.478;2023-02-15T01:16:07;99700.22;;;0.70;56.30
49825;BME280;35714;55.708;37.478;2023-02-15T01:18:33;99702.88;;;0.70;55.78
49825;BME280;35714;55.708;37.478;2023-02-15T01:21:00;99702.06;;;0.70;55.89
49825;BME280;35714;55.708;37.478;2023-02-15T01:23:25;99699.56;;;0.68;56.06
49825;BME280;35714;55.708;37.478;2023-02-15T01:25:51;99706.41;;;0.71;56.00
49825;BME280;35714;55.708;37.478;2023-02-15T01:28:17;99703.56;;;0.73;55.68
49825;BME280;35714;55.708;37.478;2023-02-15T01:30:43;99693.88;;;0.63;55.73
49825;BME280;35714;55.708;37.478;2023-02-15T01:33:10;99703.91;;;0.69;55.28
49825;BME280;35714;55.708;37.478;2023-02-15T01:35:43;99702.56;;;0.65;55.27
49825;BME280;35714;55.708;37.478;2023-02-15T01:38:09;99706.53;;;0.61;55.04
49825;BME280;35714;55.708;37.478;2023-02-15T01:40:37;99708.88;;;0.56;55.17
49825;BME280;35714;55.708;37.478;2023-02-15T01:43:10;99724.38;;;0.61;55.12
49825;BME280;35714;55.708;37.478;2023-02-15T01:45:37;99723.88;;;0.57;55.42
49825;BME280;35714;55.708;37.478;2023-02-15T01:48:06;99710.22;;;0.60;55.69
49825;BME280;35714;55.708;37.478;2023-02-15T01:50:39;99716.88;;;0.64;55.67
49825;BME280;35714;55.708;37.478;2023-02-15T01:53:13;99727.56;;;0.64;55.75
49825;BME280;35714;55.708;37.478;2023-02-15T01:55:44;99728.41;;;0.65;56.01
49825;BME280;35714;55.708;37.478;2023-02-15T01:58:14;99714.03;;;0.58;55.83
49825;BME280;35714;55.708;37.478;2023-02-15T02:00:40;99726.22;;;0.60;55.82
49825;BME280;35714;55.708;37.478;2023-02-15T02:03:06;99724.03;;;0.56;55.88
49825;BME280;35714;55.708;37.478;2023-02-15T02:05:32;99720.72;;;0.53;56.06
49825;BME280;35714;55.708;37.478;2023-02-15T02:08:00;99723.53;;;0.52;55.60
49825;BME280;35714;55.708;37.478;2023-02-15T02:10:26;99715.53;;;0.52;55.61
49825;BME280;35714;55.708;37.478;2023-02-15T02:12:58;99732.22;;;0.62;55.44
49825;BME280;35714;55.708;37.478;2023-02-15T02:15:52;99719.22;;;0.59;55.32
49825;BME280;35714;55.708;37.478;2023-02-15T02:35:30;99743.25;;;0.67;53.48
49825;BME280;35714;55.708;37.478;2023-02-15T02:38:07;99742.91;;;0.62;53.59
49825;BME280;35714;55.708;37.478;2023-02-15T02:43:38;99743.09;;;0.69;53.18
49825;BME280;35714;55.708;37.478;2023-02-15T02:46:17;99735.41;;;0.66;52.70
49825;BME280;35714;55.708;37.478;2023-02-15T02:48:46;99750.09;;;0.62;53.03
49825;BME280;35714;55.708;37.478;2023-02-15T02:51:13;99751.72;;;0.63;53.34
49825;BME280;35714;55.708;37.478;2023-02-15T02:53:45;99749.91;;;0.63;52.53
49825;BME280;35714;55.708;37.478;2023-02-15T02:56:25;99747.56;;;0.60;52.54
49825;BME280;35714;55.708;37.478;2023-02-15T02:59:08;99750.41;;;0.59;52.94
49825;BME280;35714;55.708;37.478;2023-02-15T03:01:43;99744.03;;;0.51;52.68
49825;BME280;35714;55.708;37.478;2023-02-15T03:04:16;99752.72;;;0.53;52.86
49825;BME280;35714;55.708;37.478;2023-02-15T03:06:50;99751.88;;;0.53;52.45
49825;BME280;35714;55.708;37.478;2023-02-15T03:09:38;99751.53;;;0.48;52.36
49825;BME280;35714;55.708;37.478;2023-02-15T03:12:18;99755.03;;;0.48;52.42
49825;BME280;35714;55.708;37.478;2023-02-15T03:14:53;99758.81;;;0.38;52.54
49825;BME280;35714;55.708;37.478;2023-02-15T03:17:22;99770.19;;;0.40;51.95
49825;BME280;35714;55.708;37.478;2023-02-15T03:19:51;99758.47;;;0.32;52.56
49825;BME280;35714;55.708;37.478;2023-02-15T03:22:22;99753.94;;;0.25;52.34
49825;BME280;35714;55.708;37.478;2023-02-15T03:25:01;99761.78;;;0.26;52.61
49825;BME280;35714;55.708;37.478;2023-02-15T03:27:48;99765.31;;;0.27;52.74
49825;BME280;35714;55.708;37.478;2023-02-15T03:30:17;99771.44;;;0.19;52.60
49825;BME280;35714;55.708;37.478;2023-02-15T03:32:46;99769.06;;;0.16;52.80
49825;BME280;35714;55.708;37.478;2023-02-15T03:35:12;99778.72;;;0.17;52.94
49825;BME280;35714;55.708;37.478;2023-02-15T03:37:41;99771.75;;;0.16;52.95
49825;BME280;35714;55.708;37.478;2023-02-15T03:43:03;99774.34;;;0.08;53.18
49825;BME280;35714;55.708;37.478;2023-02-15T03:45:34;99775.19;;;0.08;53.23
49825;BME280;35714;55.708;37.478;2023-02-15T03:48:01;99772.50;;;0.00;53.26
49825;BME280;35714;55.708;37.478;2023-02-15T03:50:30;99773.94;;;-0.06;52.96
49825;BME280;35714;55.708;37.478;2023-02-15T03:53:18;99766.22;;;-0.17;53.35
49825;BME280;35714;55.708;37.478;2023-02-15T03:55:47;99772.84;;;-0.21;53.38
49825;BME280;35714;55.708;37.478;2023-02-15T03:58:13;99771.97;;;-0.30;53.45
49825;BME280;35714;55.708;37.478;2023-02-15T04:01:00;99765.91;;;-0.40;53.68
49825;BME280;35714;55.708;37.478;2023-02-15T04:04:01;99785.63;;;-0.33;53.90
49825;BME280;35714;55.708;37.478;2023-02-15T04:06:28;99780.13;;;-0.31;53.54
49825;BME280;35714;55.708;37.478;2023-02-15T04:08:54;99783.56;;;-0.39;53.25
49825;BME280;35714;55.708;37.478;2023-02-15T04:11:38;99779.22;;;-0.40;53.51
49825;BME280;35714;55.708;37.478;2023-02-15T04:14:04;99781.06;;;-0.41;53.29
49825;BME280;35714;55.708;37.478;2023-02-15T04:16:49;99776.03;;;-0.44;53.23
49825;BME280;35714;55.708;37.478;2023-02-15T04:19:15;99787.06;;;-0.39;53.09
49825;BME280;35714;55.708;37.478;2023-02-15T04:21:59;99778.41;;;-0.41;52.47
49825;BME280;35714;55.708;37.478;2023-02-15T04:24:43;99779.22;;;-0.40;52.68
49825;BME280;35714;55.708;37.478;2023-02-15T04:27:29;99781.41;;;-0.35;52.88
49825;BME280;35714;55.708;37.478;2023-02-15T04:29:54;99785.16;;;-0.28;52.67
49825;BME280;35714;55.708;37.478;2023-02-15T04:32:20;99784.81;;;-0.25;52.27
49825;BME280;35714;55.708;37.478;2023-02-15T04:34:45;99780.34;;;-0.25;52.22
49825;BME280;35714;55.708;37.478;2023-02-15T04:37:11;99779.16;;;-0.22;52.24
49825;BME280;35714;55.708;37.478;2023-02-15T04:39:36;99781.81;;;-0.22;51.95
49825;BME280;35714;55.708;37.478;2023-02-15T04:42:02;99782.28;;;-0.27;51.89
49825;BME280;35714;55.708;37.478;2023-02-15T04:44:28;99774.16;;;-0.25;51.94
49825;BME280;35714;55.708;37.478;2023-02-15T04:46:53;99797.16;;;-0.24;51.16
49825;BME280;35714;55.708;37.478;2023-02-15T04:49:20;99789.31;;;-0.26;51.29
49825;BME280;35714;55.708;37.478;2023-02-15T04:51:45;99792.13;;;-0.27;51.45
49825;BME280;35714;55.708;37.478;2023-02-15T04:54:11;99789.97;;;-0.24;51.46
49825;BME280;35714;55.708;37.478;2023-02-15T04:56:36;99787.16;;;-0.22;51.38
49825;BME280;35714;55.708;37.478;2023-02-15T04:59:04;99787.16;;;-0.22;51.00
49825;BME280;35714;55.708;37.478;2023-02-15T05:01:29;99784.66;;;-0.24;51.34
49825;BME280;35714;55.708;37.478;2023-02-15T05:03:56;99792.50;;;-0.22;50.98
49825;BME280;35714;55.708;37.478;2023-02-15T05:06:21;99781.94;;;-0.32;50.84
49825;BME280;35714;55.708;37.478;2023-02-15T05:08:47;99792.13;;;-0.27;50.73
49825;BME280;35714;55.708;37.478;2023-02-15T05:11:13;99794.06;;;-0.38;50.90
49825;BME280;35714;55.708;37.478;2023-02-15T05:13:38;99788.75;;;-0.38;51.03
49825;BME280;35714;55.708;37.478;2023-02-15T05:16:04;99809.03;;;-0.37;51.19
49825;BME280;35714;55.708;37.478;2023-02-15T05:18:30;99804.03;;;-0.40;51.27
49825;BME280;35714;55.708;37.478;2023-02-15T05:20:55;99812.72;;;-0.38;51.17
49825;BME280;35714;55.708;37.478;2023-02-15T05:23:21;99807.22;;;-0.36;51.44
49825;BME280;35714;55.708;37.478;2023-02-15T05:25:50;99817.03;;;-0.37;51.43
49825;BME280;35714;55.708;37.478;2023-02-15T05:28:59;99825.41;;;-0.31;51.31
49825;BME280;35714;55.708;37.478;2023-02-15T05:31:26;99804.03;;;-0.40;50.72
49825;BME280;35714;55.708;37.478;2023-02-15T05:33:52;99817.03;;;-0.37;50.90
49825;BME280;35714;55.708;37.478;2023-02-15T05:36:27;99820.16;;;-0.41;50.55
49825;BME280;35714;55.708;37.478;2023-02-15T05:38:53;99822.81;;;-0.41;51.04
49825;BME280;35714;55.708;37.478;2023-02-15T05:41:19;99808.69;;;-0.42;50.81
49825;BME280;35714;55.708;37.478;2023-02-15T05:43:44;99822.75;;;-0.31;50.82
49825;BME280;35714;55.708;37.478;2023-02-15T05:46:10;99831.44;;;-0.29;50.18
49825;BME280;35714;55.708;37.478;2023-02-15T05:48:36;99827.44;;;-0.25;50.55
49825;BME280;35714;55.708;37.478;2023-02-15T05:51:04;99820.97;;;-0.23;50.16
49825;BME280;35714;55.708;37.478;2023-02-15T05:53:33;99820.16;;;-0.23;50.18
49825;BME280;35714;55.708;37.478;2023-02-15T05:55:59;99819.78;;;-0.28;50.26
49825;BME280;35714;55.708;37.478;2023-02-15T05:58:30;99826.81;;;-0.19;50.48
49825;BME280;35714;55.708;37.478;2023-02-15T06:00:57;99829.88;;;-0.14;50.24
49825;BME280;35714;55.708;37.478;2023-02-15T06:03:23;99831.53;;;-0.13;49.94
49825;BME280;35714;55.708;37.478;2023-02-15T06:05:52;99808.31;;;-0.21;50.06
49825;BME280;35714;55.708;37.478;2023-02-15T06:08:18;99817.22;;;-0.12;50.06
49825;BME280;35714;55.708;37.478;2023-02-15T06:10:47;99820.25;;;-0.07;49.89
49825;BME280;35714;55.708;37.478;2023-02-15T06:13:13;99826.94;;;-0.03;50.02
49825;BME280;35714;55.708;37.478;2023-02-15T06:15:39;99831.31;;;-0.02;49.79
49825;BME280;35714;55.708;37.478;2023-02-15T06:18:04;99830.41;;;-0.10;49.52
49825;BME280;35714;55.708;37.478;2023-02-15T06:20:30;99835.53;;;-0.17;49.91
49825;BME280;35714;55.708;37.478;2023-02-15T06:22:56;99841.38;;;-0.13;50.32
49825;BME280;35714;55.708;37.478;2023-02-15T06:25:21;99840.59;;;-0.06;50.21
49825;BME280;35714;55.708;37.478;2023-02-15T06:27:47;99856.63;;;0.03;49.88
49825;BME280;35714;55.708;37.478;2023-02-15T06:30:13;99853.66;;;0.06;49.83
49825;BME280;35714;55.708;37.478;2023-02-15T06:32:39;99853.00;;;0.04;49.33
49825;BME280;35714;55.708;37.478;2023-02-15T06:35:06;99856.63;;;0.03;49.46
49825;BME280;35714;55.708;37.478;2023-02-15T06:37:32;99854.94;;;0.02;49.51
49825;BME280;35714;55.708;37.478;2023-02-15T06:39:57;99850.63;;;0.01;49.25
49825;BME280;35714;55.708;37.478;2023-02-15T06:42:25;99857.88;;;-0.10;49.41
49825;BME280;35714;55.708;37.478;2023-02-15T06:44:50;99862.53;;;-0.12;49.82
49825;BME280;35714;55.708;37.478;2023-02-15T06:47:16;99859.72;;;-0.10;49.44
49825;BME280;35714;55.708;37.478;2023-02-15T06:49:42;99862.06;;;-0.07;49.68
49825;BME280;35714;55.708;37.478;2023-02-15T06:52:07;99865.41;;;-0.05;49.65
49825;BME280;35714;55.708;37.478;2023-02-15T06:54:33;99867.31;;;0.03;49.59
49825;BME280;35714;55.708;37.478;2023-02-15T06:56:59;99855.66;;;0.04;49.26
49825;BME280;35714;55.708;37.478;2023-02-15T06:59:24;99863.34;;;0.07;49.24
49825;BME280;35714;55.708;37.478;2023-02-15T07:01:50;99862.56;;;0.14;49.36
49825;BME280;35714;55.708;37.478;2023-02-15T07:04:15;99854.13;;;0.27;48.98
49825;BME280;35714;55.708;37.478;2023-02-15T07:06:41;99869.66;;;0.32;48.85
49825;BME280;35714;55.708;37.478;2023-02-15T07:09:07;99860.50;;;0.34;48.79
49825;BME280;35714;55.708;37.478;2023-02-15T07:11:33;99857.81;;;0.34;48.75
49825;BME280;35714;55.708;37.478;2023-02-15T07:14:17;99854.84;;;0.38;48.50
49825;BME280;35714;55.708;37.478;2023-02-15T07:16:43;99854.50;;;0.32;48.70
49825;BME280;35714;55.708;37.478;2023-02-15T07:19:09;99864.53;;;0.39;48.84
49825;BME280;35714;55.708;37.478;2023-02-15T07:21:35;99863.22;;;0.43;48.87
49825;BME280;35714;55.708;37.478;2023-02-15T07:24:01;99862.59;;;0.49;48.90
49825;BME280;35714;55.708;37.478;2023-02-15T07:26:27;99854.94;;;0.54;48.64
49825;BME280;35714;55.708;37.478;2023-02-15T07:28:52;99868.47;;;0.61;48.55
49825;BME280;35714;55.708;37.478;2023-02-15T07:31:19;99862.34;;;0.68;48.55
49825;BME280;35714;55.708;37.478;2023-02-15T07:33:45;99874.25;;;0.82;48.28
49825;BME280;35714;55.708;37.478;2023-02-15T07:36:11;99857.06;;;0.85;48.75
49825;BME280;35714;55.708;37.478;2023-02-15T07:38:39;99868.59;;;0.85;48.81
49825;BME280;35714;55.708;37.478;2023-02-15T07:41:07;99874.75;;;0.86;49.14
49825;BME280;35714;55.708;37.478;2023-02-15T07:43:36;99853.38;;;0.78;49.38
49825;BME280;35714;55.708;37.478;2023-02-15T07:46:07;99876.44;;;0.87;49.78
49825;BME280;35714;55.708;37.478;2023-02-15T07:48:35;99860.09;;;0.90;49.83
49825;BME280;35714;55.708;37.478;2023-02-15T07:51:02;99869.50;;;1.02;49.72
49825;BME280;35714;55.708;37.478;2023-02-15T07:53:29;99880.84;;;1.04;49.73
49825;BME280;35714;55.708;37.478;2023-02-15T07:56:02;99874.84;;;1.02;49.54
49825;BME280;35714;55.708;37.478;2023-02-15T07:58:28;99868.47;;;0.95;49.63
49825;BME280;35714;55.708;37.478;2023-02-15T08:01:13;99875.81;;;0.93;49.77
49825;BME280;35714;55.708;37.478;2023-02-15T08:03:39;99857.06;;;0.85;49.47
49825;BME280;35714;55.708;37.478;2023-02-15T08:06:05;99883.66;;;0.95;49.71
49825;BME280;35714;55.708;37.478;2023-02-15T08:08:33;99881.97;;;0.94;49.81
49825;BME280;35714;55.708;37.478;2023-02-15T08:14:11;99879.53;;;1.08;49.00
49825;BME280;35714;55.708;37.478;2023-02-15T08:19:16;99898.16;;;1.00;48.65
49825;BME280;35714;55.708;37.478;2023-02-15T08:21:47;99904.16;;;0.94;48.41
49825;BME280;35714;55.708;37.478;2023-02-15T08:24:15;99907.84;;;0.93;48.38
49825;BME280;35714;55.708;37.478;2023-02-15T08:26:41;99901.81;;;0.91;48.56
49825;BME280;35714;55.708;37.478;2023-02-15T08:29:09;99907.19;;;0.99;48.20
49825;BME280;35714;55.708;37.478;2023-02-15T08:31:35;99910.69;;;1.00;47.85
49825;BME280;35714;55.708;37.478;2023-02-15T08:34:03;99912.06;;;1.04;48.21
49825;BME280;35714;55.708;37.478;2023-02-15T08:36:30;99911.75;;;1.15;48.10
49825;BME280;35714;55.708;37.478;2023-02-15T08:38:58;99914.78;;;1.20;47.75
49825;BME280;35714;55.708;37.478;2023-02-15T08:41:27;99914.94;;;1.27;47.58
49825;BME280;35714;55.708;37.478;2023-02-15T08:43:54;99903.75;;;1.23;46.97
49825;BME280;35714;55.708;37.478;2023-02-15T08:46:21;99922.63;;;1.22;46.65
49825;BME280;35714;55.708;37.478;2023-02-15T08:48:47;99919.22;;;1.03;46.34
49825;BME280;35714;55.708;37.478;2023-02-15T08:51:15;99913.50;;;0.90;46.58
49825;BME280;35714;55.708;37.478;2023-02-15T08:53:44;99905.63;;;0.80;46.93
49825;BME280;35714;55.708;37.478;2023-02-15T08:56:11;99913.63;;;0.80;47.33
49825;BME280;35714;55.708;37.478;2023-02-15T08:58:37;99926.16;;;0.88;47.63
49825;BME280;35714;55.708;37.478;2023-02-15T09:01:17;99923.22;;;0.99;47.58
49825;BME280;35714;55.708;37.478;2023-02-15T09:03:46;99910.84;;;0.98;47.26
49825;BME280;35714;55.708;37.478;2023-02-15T09:06:13;99923.22;;;0.99;47.26
49825;BME280;35714;55.708;37.478;2023-02-15T09:08:39;99918.91;;;1.06;46.89
49825;BME280;35714;55.708;37.478;2023-02-15T09:13:37;99917.44;;;1.12;47.06
49825;BME280;35714;55.708;37.478;2023-02-15T09:16:05;99924.31;;;1.23;47.33
49825;BME280;35714;55.708;37.478;2023-02-15T09:18:34;99917.66;;;1.35;46.73
49825;BME280;35714;55.708;37.478;2023-02-15T09:21:05;99923.69;;;1.37;46.40
49825;BME280;35714;55.708;37.478;2023-02-15T09:23:31;99922.50;;;1.40;46.99
49825;BME280;35714;55.708;37.478;2023-02-15T09:25:57;99908.84;;;1.59;47.18
49825;BME280;35714;55.708;37.478;2023-02-15T09:28:26;99900.69;;;1.77;46.44
49825;BME280;35714;55.708;37.478;2023-02-15T09:30:52;99912.88;;;1.88;45.84
49825;BME280;35714;55.708;37.478;2023-02-15T09:33:18;99910.56;;;1.93;45.17
49825;BME280;35714;55.708;37.478;2023-02-15T09:35:43;99928.44;;;1.76;45.01
49825;BME280;35714;55.708;37.478;2023-02-15T09:38:09;99928.75;;;1.65;45.53
49825;BME280;35714;55.708;37.478;2023-02-15T09:40:43;99918.19;;;1.55;45.35
49825;BME280;35714;55.708;37.478;2023-02-15T09:46:20;99932.69;;;1.44;45.63
49825;BME280;35714;55.708;37.478;2023-02-15T09:48:56;99935.91;;;1.48;45.97
49825;BME280;35714;55.708;37.478;2023-02-15T09:57:16;99943.53;;;1.43;45.92
49825;BME280;35714;55.708;37.478;2023-02-15T10:02:48;99946.75;;;1.47;46.13
49825;BME280;35714;55.708;37.478;2023-02-15T10:23:03;99949.47;;;1.71;46.04
49825;BME280;35714;55.708;37.478;2023-02-15T10:25:39;99962.34;;;1.76;45.95
49825;BME280;35714;55.708;37.478;2023-02-15T10:28:20;99950.81;;;1.75;45.44
49825;BME280;35714;55.708;37.478;2023-02-15T10:30:49;99958.78;;;1.51;45.62
49825;BME280;35714;55.708;37.478;2023-02-15T10:43:58;99977.78;;;1.39;46.31
49825;BME280;35714;55.708;37.478;2023-02-15T11:07:06;100003.25;;;1.68;46.48
49825;BME280;35714;55.708;37.478;2023-02-15T11:09:40;100011.63;;;1.65;46.79
49825;BME280;35714;55.708;37.478;2023-02-15T11:12:11;99989.53;;;1.63;46.97
49825;BME280;35714;55.708;37.478;2023-02-15T11:15:03;99996.25;;;1.67;46.57
49825;BME280;35714;55.708;37.478;2023-02-15T11:17:39;100007.41;;;1.54;46.83
49825;BME280;35714;55.708;37.478;2023-02-15T11:23:21;100009.84;;;1.39;46.96
49825;BME280;35714;55.708;37.478;2023-02-15T11:26:31;100016.38;;;1.37;47.28
49825;BME280;35714;55.708;37.478;2023-02-15T11:29:17;100014.69;;;1.36;47.23
49825;BME280;35714;55.708;37.478;2023-02-15T11:31:49;100010.47;;;1.33;47.15
49825;BME280;35714;55.708;37.478;2023-02-15T11:34:27;100016.69;;;1.34;47.41
49825;BME280;35714;55.708;37.478;2023-02-15T11:36:55;100022.13;;;1.24;47.78
49825;BME280;35714;55.708;37.478;2023-02-15T11:39:26;100020.94;;;1.18;47.72
49825;BME280;35714;55.708;37.478;2023-02-15T11:41:57;100026.44;;;1.17;47.90
49825;BME280;35714;55.708;37.478;2023-02-15T11:44:32;100029.47;;;1.22;47.71
49825;BME280;35714;55.708;37.478;2023-02-15T11:46:59;100029.03;;;1.35;47.90
49825;BME280;35714;55.708;37.478;2023-02-15T11:49:32;100040.63;;;1.52;47.87
49825;BME280;35714;55.708;37.478;2023-02-15T11:52:01;100034.63;;;1.58;47.63
49825;BME280;35714;55.708;37.478;2023-02-15T11:54:29;100035.63;;;1.57;47.56
49825;BME280;35714;55.708;37.478;2023-02-15T12:02:37;100037.97;;;1.17;48.66
49825;BME280;35714;55.708;37.478;2023-02-15T12:05:09;100041.72;;;1.06;49.19
49825;BME280;35714;55.708;37.478;2023-02-15T12:07:46;100052.72;;;1.03;49.59
49825;BME280;35714;55.708;37.478;2023-02-15T12:10:24;100048.41;;;1.02;49.98
49825;BME280;35714;55.708;37.478;2023-02-15T12:13:11;100056.72;;;0.99;50.06
49825;BME280;35714;55.708;37.478;2023-02-15T12:15:38;100050.75;;;1.05;50.07
49825;BME280;35714;55.708;37.478;2023-02-15T12:20:43;100059.31;;;1.17;49.47
49825;BME280;35714;55.708;37.478;2023-02-15T12:23:12;100061.69;;;1.20;49.17
49825;BME280;35714;55.708;37.478;2023-02-15T12:25:41;100061.22;;;1.25;48.85
49825;BME280;35714;55.708;37.478;2023-02-15T12:30:58;100060.38;;;1.24;48.33
49825;BME280;35714;55.708;37.478;2023-02-15T12:33:30;100060.88;;;1.28;48.33
49825;BME280;35714;55.708;37.478;2023-02-15T12:36:25;100074.09;;;1.30;47.94
49825;BME280;35714;55.708;37.478;2023-02-15T12:41:37;100077.16;;;1.08;48.23
49825;BME280;35714;55.708;37.478;2023-02-15T12:44:15;100074.94;;;1.04;48.16
49825;BME280;35714;55.708;37.478;2023-02-15T12:46:41;100087.72;;;0.92;47.68
49825;BME280;35714;55.708;37.478;2023-02-15T12:51:55;100087.59;;;0.76;47.82
49825;BME280;35714;55.708;37.478;2023-02-15T12:56:50;100091.25;;;0.75;48.58
49825;BME280;35714;55.708;37.478;2023-02-15T12:59:18;100086.28;;;0.80;48.37
49825;BME280;35714;55.708;37.478;2023-02-15T13:01:47;100097.56;;;0.92;48.22
49825;BME280;35714;55.708;37.478;2023-02-15T13:04:23;100100.06;;;0.93;47.87
49825;BME280;35714;55.708;37.478;2023-02-15T13:06:52;100108.00;;;0.85;48.04
49825;BME280;35714;55.708;37.478;2023-02-15T13:12:08;100107.41;;;0.73;48.15
49825;BME280;35714;55.708;37.478;2023-02-15T13:14:36;100101.31;;;0.63;48.15
49825;BME280;35714;55.708;37.478;2023-02-15T13:17:04;100111.53;;;0.67;48.40
49825;BME280;35714;55.708;37.478;2023-02-15T13:19:40;100118.03;;;0.65;47.61
49825;BME280;35714;55.708;37.478;2023-02-15T13:22:14;100118.13;;;0.55;47.95
49825;BME280;35714;55.708;37.478;2023-02-15T13:24:47;100121.78;;;0.54;48.16
49825;BME280;35714;55.708;37.478;2023-02-15T13:27:17;100123.13;;;0.58;48.07
49825;BME280;35714;55.708;37.478;2023-02-15T13:29:49;100128.84;;;0.63;47.63
49825;BME280;35714;55.708;37.478;2023-02-15T13:32:28;100129.53;;;0.65;47.83
49825;BME280;35714;55.708;37.478;2023-02-15T13:34:59;100132.81;;;0.59;47.55
49825;BME280;35714;55.708;37.478;2023-02-15T13:40:24;100134.88;;;0.65;47.83
49825;BME280;35714;55.708;37.478;2023-02-15T13:43:01;100143.25;;;0.70;47.51
49825;BME280;35714;55.708;37.478;2023-02-15T13:48:29;100149.91;;;0.66;47.60
49825;BME280;35714;55.708;37.478;2023-02-15T13:54:13;100150.28;;;0.53;47.75
49825;BME280;35714;55.708;37.478;2023-02-15T14:06:14;100160.09;;;0.53;48.38
49825;BME280;35714;55.708;37.478;2023-02-15T14:20:21;100167.19;;;0.62;48.27
49825;BME280;35714;55.708;37.478;2023-02-15T14:25:50;100174.59;;;0.68;48.04
49825;BME280;35714;55.708;37.478;2023-02-15T14:28:21;100175.66;;;0.58;48.13
49825;BME280;35714;55.708;37.478;2023-02-15T14:30:54;100177.44;;;0.49;47.90
49825;BME280;35714;55.708;37.478;2023-02-15T14:33:28;100184.50;;;0.40;48.10
49825;BME280;35714;55.708;37.478;2023-02-15T14:35:55;100192.41;;;0.32;48.40
49825;BME280;35714;55.708;37.478;2023-02-15T14:41:49;100193.53;;;0.29;48.94
49825;BME280;35714;55.708;37.478;2023-02-15T14:44:36;100191.03;;;0.28;49.04
49825;BME280;35714;55.708;37.478;2023-02-15T14:47:14;100188.19;;;0.29;48.77
49825;BME280;35714;55.708;37.478;2023-02-15T14:49:41;100197.75;;;0.32;49.05
49825;BME280;35714;55.708;37.478;2023-02-15T14:52:11;100196.59;;;0.34;49.33
49825;BME280;35714;55.708;37.478;2023-02-15T15:02:43;100199.75;;;0.20;48.00
49825;BME280;35714;55.708;37.478;2023-02-15T15:05:15;100225.75;;;0.18;48.13
49825;BME280;35714;55.708;37.478;2023-02-15T15:08:21;100213.00;;;0.12;48.02
49825;BME280;35714;55.708;37.478;2023-02-15T15:10:48;100211.13;;;-0.06;48.00
49825;BME280;35714;55.708;37.478;2023-02-15T15:15:56;100210.72;;;-0.11;48.38
49825;BME280;35714;55.708;37.478;2023-02-15T15:18:47;100213.09;;;-0.08;48.31
49825;BME280;35714;55.708;37.478;2023-02-15T15:27:39;100231.78;;;-0.17;48.08
49825;BME280;35714;55.708;37.478;2023-02-15T15:49:29;100232.81;;;-0.28;48.97
49825;BME280;35714;55.708;37.478;2023-02-15T15:52:00;100244.44;;;-0.29;49.37
49825;BME280;35714;55.708;37.478;2023-02-15T15:54:26;100243.75;;;-0.31;49.53
49825;BME280;35714;55.708;37.478;2023-02-15T15:56:55;100249.38;;;-0.34;49.48
49825;BME280;35714;55.708;37.478;2023-02-15T15:59:25;100252.31;;;-0.38;49.14
49825;BME280;35714;55.708;37.478;2023-02-15T16:01:51;100253.88;;;-0.45;49.18
49825;BME280;35714;55.708;37.478;2023-02-15T16:04:29;100248.81;;;-0.48;49.21
49825;BME280;35714;55.708;37.478;2023-02-15T16:06:57;100245.75;;;-0.53;49.23
49825;BME280;35714;55.708;37.478;2023-02-15T16:09:27;100247.00;;;-0.57;49.24
49825;BME280;35714;55.708;37.478;2023-02-15T16:11:55;100252.59;;;-0.50;49.50
49825;BME280;35714;55.708;37.478;2023-02-15T16:14:31;100253.59;;;-0.42;49.51
49825;BME280;35714;55.708;37.478;2023-02-15T16:17:00;100268.16;;;-0.36;49.58
49825;BME280;35714;55.708;37.478;2023-02-15T16:19:30;100268.44;;;-0.29;49.25
49825;BME280;35714;55.708;37.478;2023-02-15T16:21:59;100271.50;;;-0.24;49.28